Time;durP1;ratioP1;P1;durP2;ratioP2;P2;SDS_P1;SDS_P2;PMS_P1;PMS_P2;Temp;Humidity;BMP_temperature;BMP_pressure;BME280_temperature;BME280_humidity;BME280_pressure;Samples;Min_cycle;Max_cycle;Signal;HPM_P1;HPM_P2
2023/09/23 00:00:47;;;;;;;2.13;1.40;;;;;;;18.48;77.21;100045.31;2044144;28;20036;-67
2023/09/23 00:01:52;;;;;;;4.40;1.67;;;;;;;18.48;77.37;100046.09;2058633;28;20101;-66
2023/09/23 00:02:57;;;;;;;2.17;1.30;;;;;;;18.46;77.29;100042.13;2048129;28;20080;-66
2023/09/23 00:03:59;;;;;;;1.83;1.40;;;;;;;18.46;77.20;100047.59;2049806;28;20062;-67
2023/09/23 00:05:11;;;;;;;1.98;1.40;;;;;;;18.44;77.42;100047.13;2065240;28;20078;-66
2023/09/23 00:06:15;;;;;;;1.85;1.40;;;;;;;18.43;77.29;100048.28;2055900;28;20034;-67
2023/09/23 00:07:23;;;;;;;2.80;1.35;;;;;;;18.42;77.33;100052.13;2049854;28;20079;-66
2023/09/23 00:08:24;;;;;;;1.95;1.50;;;;;;;18.41;77.33;100050.53;2057572;28;20050;-66
2023/09/23 00:09:28;;;;;;;1.60;1.25;;;;;;;18.42;77.40;100052.13;2057074;28;20889;-67
2023/09/23 00:10:31;;;;;;;1.80;1.30;;;;;;;18.39;77.45;100053.59;2049793;28;20036;-67
2023/09/23 00:11:37;;;;;;;1.73;1.33;;;;;;;18.40;77.55;100043.50;2057348;28;20042;-66
2023/09/23 00:12:41;;;;;;;1.85;1.40;;;;;;;18.38;77.73;100046.59;2048779;28;20855;-66
2023/09/23 00:13:48;;;;;;;2.13;1.45;;;;;;;18.38;77.40;100034.88;2049727;28;20872;-66
2023/09/23 00:14:54;;;;;;;2.15;1.30;;;;;;;18.38;77.70;100029.44;2048203;28;20036;-66
2023/09/23 00:15:57;;;;;;;1.90;1.48;;;;;;;18.37;77.78;100028.66;2048011;28;20043;-66
2023/09/23 00:17:03;;;;;;;1.67;1.25;;;;;;;18.37;77.81;100027.88;2057269;28;20055;-66
2023/09/23 00:18:06;;;;;;;2.38;1.40;;;;;;;18.37;77.92;100027.88;2049051;28;20047;-66
2023/09/23 00:19:10;;;;;;;2.25;1.30;;;;;;;18.36;78.08;100032.53;2041429;28;20162;-66
2023/09/23 00:20:14;;;;;;;1.77;1.30;;;;;;;18.36;78.01;100032.53;2040802;29;20083;-66
2023/09/23 00:21:19;;;;;;;1.83;1.40;;;;;;;18.36;78.10;100042.63;2042443;28;20150;-66
2023/09/23 00:22:23;;;;;;;1.70;1.60;;;;;;;18.35;78.00;100041.00;2050439;28;20044;-66
2023/09/23 00:23:27;;;;;;;1.83;1.42;;;;;;;18.34;78.01;100047.59;2057593;28;20244;-66
2023/09/23 00:24:32;;;;;;;3.28;1.80;;;;;;;18.34;78.12;100053.03;2064502;28;20896;-66
2023/09/23 00:25:44;;;;;;;1.60;1.38;;;;;;;18.32;78.19;100053.41;2065456;28;20839;-66
2023/09/23 00:26:49;;;;;;;2.05;1.30;;;;;;;18.29;78.08;100052.16;2047874;28;20036;-66
2023/09/23 00:27:58;;;;;;;1.75;1.38;;;;;;;18.30;78.09;100048.28;2048783;28;20046;-66
2023/09/23 00:29:04;;;;;;;2.28;1.50;;;;;;;18.30;77.92;100055.66;2048087;28;20035;-66
2023/09/23 00:30:12;;;;;;;1.60;1.20;;;;;;;18.29;77.96;100049.44;2040113;28;20183;-66
2023/09/23 00:31:15;;;;;;;1.95;1.40;;;;;;;18.28;77.91;100045.13;2033092;29;20558;-66
2023/09/23 00:32:19;;;;;;;2.05;1.58;;;;;;;18.27;77.92;100051.69;2040347;28;20035;-66
2023/09/23 00:33:25;;;;;;;2.60;1.50;;;;;;;18.22;78.02;100053.84;2055705;28;20771;-66
2023/09/23 00:34:37;;;;;;;2.72;1.70;;;;;;;18.25;77.90;100064.88;2040828;28;20071;-66
2023/09/23 00:35:41;;;;;;;2.58;1.50;;;;;;;18.25;77.91;100064.06;2049781;28;20039;-66
2023/09/23 00:36:50;;;;;;;2.30;1.40;;;;;;;18.24;77.97;100063.25;2055217;28;20054;-66
2023/09/23 00:37:56;;;;;;;2.53;1.50;;;;;;;18.24;77.90;100067.91;2041628;28;20036;-66
2023/09/23 00:38:58;;;;;;;2.22;1.40;;;;;;;18.22;78.04;100071.00;2032507;29;20041;-66
2023/09/23 00:40:04;;;;;;;1.80;1.60;;;;;;;18.21;77.99;100063.94;2033243;28;20152;-66
2023/09/23 00:41:08;;;;;;;2.22;1.50;;;;;;;18.20;77.90;100051.50;2040535;28;20040;-66
2023/09/23 00:42:22;;;;;;;2.38;1.40;;;;;;;18.20;78.05;100046.03;2048357;28;20794;-66
2023/09/23 00:43:28;;;;;;;4.57;2.58;;;;;;;18.20;78.12;100045.25;2049988;28;20071;-66
2023/09/23 00:44:41;;;;;;;1.73;1.20;;;;;;;18.20;78.18;100039.81;2039947;28;20186;-66
2023/09/23 00:45:52;;;;;;;2.50;1.30;;;;;;;18.19;78.29;100043.66;2050358;28;20044;-66
2023/09/23 00:46:56;;;;;;;2.67;1.40;;;;;;;18.18;78.22;100039.34;2054323;28;20085;-66
2023/09/23 00:48:08;;;;;;;1.80;1.40;;;;;;;18.18;78.08;100045.59;2040662;28;20171;-66
2023/09/23 00:49:11;;;;;;;3.28;1.40;;;;;;;18.17;78.16;100041.28;2048868;28;20054;-66
2023/09/23 00:50:21;;;;;;;1.80;1.50;;;;;;;18.17;78.37;100052.16;2047493;28;20048;-66
2023/09/23 00:51:26;;;;;;;1.52;1.30;;;;;;;18.17;77.98;100052.16;2041756;28;20043;-66
2023/09/23 00:52:29;;;;;;;2.97;1.30;;;;;;;18.17;78.17;100054.88;2032727;28;20056;-66
2023/09/23 00:53:40;;;;;;;1.70;1.52;;;;;;;18.18;78.30;100050.25;2032919;28;20112;-66
2023/09/23 00:54:46;;;;;;;1.45;1.20;;;;;;;18.18;78.47;100053.75;2034722;28;20850;-66
2023/09/23 00:55:57;;;;;;;2.88;1.42;;;;;;;18.15;78.46;100046.25;2033707;28;20033;-66
2023/09/23 00:57:07;;;;;;;1.45;1.10;;;;;;;18.18;78.57;100055.69;2050906;28;20042;-66
2023/09/23 00:58:16;;;;;;;1.80;1.30;;;;;;;18.19;78.49;100054.53;2047491;28;20051;-66
2023/09/23 00:59:20;;;;;;;1.80;1.30;;;;;;;18.18;78.59;100053.75;2033089;28;20088;-66
2023/09/23 01:00:27;;;;;;;1.50;1.20;;;;;;;18.16;78.51;100056.03;2048549;28;20055;-66
2023/09/23 01:01:28;;;;;;;2.15;1.25;;;;;;;18.14;78.37;100063.72;2047018;28;20962;-66
2023/09/23 01:02:34;;;;;;;2.42;1.30;;;;;;;18.15;78.46;100059.09;2040528;28;20043;-66
2023/09/23 01:03:43;;;;;;;2.63;1.20;;;;;;;18.14;78.40;100074.63;2055097;28;20040;-65
2023/09/23 01:04:49;;;;;;;2.60;1.17;;;;;;;18.14;78.60;100071.09;2048318;28;20812;-66
2023/09/23 01:06:16;;;;;;;1.98;1.27;;;;;;;18.13;78.61;100064.09;2047017;28;20044;-66
2023/09/23 01:07:21;;;;;;;2.13;1.20;;;;;;;18.12;78.79;100059.75;2046174;28;20086;-67
2023/09/23 01:08:29;;;;;;;1.38;1.00;;;;;;;18.13;78.77;100062.16;2047842;28;20831;-66
2023/09/23 01:09:33;;;;;;;4.50;1.20;;;;;;;18.11;78.62;100058.97;2049333;28;20146;-67
2023/09/23 01:10:40;;;;;;;3.17;1.20;;;;;;;18.13;78.77;100062.16;2055193;28;20074;-66
2023/09/23 01:12:09;;;;;;;1.95;1.35;;;;;;;18.13;78.68;100062.16;2055430;28;20039;-67
2023/09/23 01:13:22;;;;;;;1.92;1.30;;;;;;;18.13;78.71;100058.66;2050248;28;20957;-67
2023/09/23 01:14:25;;;;;;;2.20;1.50;;;;;;;18.11;78.61;100069.84;2041226;28;20036;-66
2023/09/23 01:15:31;;;;;;;5.30;1.40;;;;;;;18.11;78.74;100067.13;2034995;28;20075;-66
2023/09/23 01:16:32;;;;;;;2.83;1.45;;;;;;;18.10;78.69;100071.00;2031567;28;20849;-66
2023/09/23 01:17:36;;;;;;;2.45;1.40;;;;;;;18.11;78.58;100074.50;2040227;28;20115;-66
2023/09/23 01:18:49;;;;;;;2.10;1.10;;;;;;;18.10;78.51;100072.94;2039174;28;20946;-66
2023/09/23 01:20:01;;;;;;;1.73;1.13;;;;;;;18.10;78.50;100075.66;2041706;28;20036;-66
2023/09/23 01:21:03;;;;;;;;;;;;;;;18.08;78.56;100073.25;2048648;28;20094;-66
2023/09/23 01:22:05;;;;;;;3.30;1.25;;;;;;;18.09;78.44;100071.31;2047389;28;19925;-67
2023/09/23 01:23:10;;;;;;;2.25;1.63;;;;;;;18.09;78.47;100072.13;2039404;28;20107;-67
2023/09/23 01:24:16;;;;;;;2.00;1.13;;;;;;;18.09;78.48;100074.03;2032511;28;20063;-67
2023/09/23 01:25:22;;;;;;;2.20;1.17;;;;;;;18.08;78.68;100065.09;2049423;28;20035;-67
2023/09/23 01:26:24;;;;;;;1.75;1.30;;;;;;;18.05;78.53;100063.06;2047589;28;20035;-67
2023/09/23 01:27:34;;;;;;;5.53;1.30;;;;;;;18.09;78.64;100068.59;2032325;28;20041;-67
2023/09/23 01:28:39;;;;;;;1.35;1.20;;;;;;;18.08;78.65;100070.53;2033623;28;20852;-67
2023/09/23 01:29:44;;;;;;;2.20;1.42;;;;;;;18.08;78.84;100067.81;2040721;28;20047;-67
2023/09/23 01:30:52;;;;;;;2.47;1.42;;;;;;;18.08;78.95;100064.31;2048165;28;20039;-67
2023/09/23 01:32:17;;;;;;;3.13;1.30;;;;;;;18.08;79.01;100064.31;2038806;29;21084;-67
2023/09/23 01:33:25;;;;;;;4.35;1.40;;;;;;;18.08;79.28;100069.75;2051481;28;20197;-67
2023/09/23 01:34:31;;;;;;;3.15;1.20;;;;;;;18.06;79.13;100062.72;2061911;28;20096;-67
2023/09/23 01:35:38;;;;;;;;;;;;;;;18.06;78.95;100057.28;2056468;28;20046;-67
2023/09/23 01:36:39;;;;;;;2.28;1.15;;;;;;;18.06;78.97;100057.28;2039670;28;20635;-67
2023/09/23 01:37:49;;;;;;;3.58;1.40;;;;;;;18.07;78.97;100058.06;2025619;28;20848;-67
2023/09/23 01:38:57;;;;;;;2.53;1.35;;;;;;;18.06;79.07;100061.91;2033861;28;20041;-67
2023/09/23 01:39:58;;;;;;;2.85;1.20;;;;;;;18.05;79.05;100054.91;2040523;28;20084;-67
2023/09/23 01:41:06;;;;;;;3.67;1.90;;;;;;;18.05;78.96;100057.63;2039807;28;20040;-67
2023/09/23 01:42:07;;;;;;;1.88;1.30;;;;;;;18.04;78.90;100058.75;2042317;28;20047;-68
2023/09/23 01:43:10;;;;;;;1.42;1.05;;;;;;;18.04;79.01;100058.75;2032921;29;20059;-66
2023/09/23 01:44:16;;;;;;;2.95;1.17;;;;;;;18.04;78.78;100058.75;2034301;28;20966;-67
2023/09/23 01:45:22;;;;;;;2.88;1.30;;;;;;;18.03;78.83;100059.88;2049928;28;20863;-67
2023/09/23 01:46:30;;;;;;;3.10;1.17;;;;;;;18.02;78.91;100064.53;2055841;28;20118;-67
2023/09/23 01:47:34;;;;;;;1.75;1.17;;;;;;;18.03;79.05;100057.97;2057426;28;20863;-67
2023/09/23 01:48:38;;;;;;;2.38;1.30;;;;;;;18.02;78.96;100067.25;2065126;28;20039;-66
2023/09/23 01:49:53;;;;;;;2.13;1.20;;;;;;;18.00;78.99;100068.72;2048537;28;20066;-66
2023/09/23 01:51:04;;;;;;;2.25;1.50;;;;;;;18.00;78.94;100069.53;2050909;28;20106;-66
2023/09/23 01:52:06;;;;;;;4.38;1.15;;;;;;;17.98;78.96;100073.72;2056661;28;20165;-66
2023/09/23 01:53:14;;;;;;;3.65;1.55;;;;;;;17.95;78.95;100072.47;2040905;28;20163;-66
2023/09/23 01:54:18;;;;;;;3.90;1.23;;;;;;;17.96;78.91;100070.53;2050093;28;20130;-67
2023/09/23 01:55:27;;;;;;;2.00;1.05;;;;;;;17.96;79.23;100070.53;2048607;28;20036;-67
2023/09/23 01:56:34;;;;;;;2.50;1.30;;;;;;;17.95;79.02;100072.47;2042005;28;20171;-67
2023/09/23 01:57:41;;;;;;;2.50;1.50;;;;;;;17.94;79.04;100070.88;2034590;28;20047;-67
2023/09/23 01:58:55;;;;;;;1.75;1.23;;;;;;;17.95;79.06;100077.13;2045608;28;20155;-67
2023/09/23 02:00:10;;;;;;;2.15;1.40;;;;;;;17.94;78.95;100070.88;2040871;28;20139;-67
2023/09/23 02:01:21;;;;;;;2.70;1.20;;;;;;;17.95;79.05;100068.97;2053717;28;20047;-67
2023/09/23 02:02:26;;;;;;;3.38;1.20;;;;;;;17.95;78.95;100066.25;2056989;28;20046;-67
2023/09/23 02:03:33;;;;;;;2.28;1.30;;;;;;;17.96;78.94;100065.09;2066543;28;20149;-67
2023/09/23 02:04:40;;;;;;;1.85;1.30;;;;;;;17.96;79.03;100065.88;2063952;28;20046;-67
2023/09/23 02:05:42;;;;;;;2.03;1.20;;;;;;;17.96;79.04;100060.44;2049595;28;20039;-67
2023/09/23 02:06:48;;;;;;;2.33;1.38;;;;;;;17.97;79.11;100063.94;2050295;28;20074;-68
2023/09/23 02:07:57;;;;;;;4.80;1.45;;;;;;;17.97;79.12;100063.94;2049674;28;20078;-68
2023/09/23 02:09:09;;;;;;;2.97;1.20;;;;;;;17.97;79.23;100070.22;2050784;28;20162;-68
2023/09/23 02:10:17;;;;;;;1.33;1.10;;;;;;;17.97;79.04;100075.66;2035364;29;20127;-68
2023/09/23 02:11:22;;;;;;;3.80;1.40;;;;;;;17.96;79.17;100076.75;2043762;28;20039;-67
2023/09/23 02:12:32;;;;;;;1.70;1.33;;;;;;;17.95;78.95;100082.56;2042395;28;20036;-67
2023/09/23 02:13:40;;;;;;;2.65;1.40;;;;;;;17.96;79.03;100082.19;2052326;28;20035;-67
2023/09/23 02:14:46;;;;;;;2.25;1.48;;;;;;;17.96;78.95;100076.75;2056986;28;20786;-67
2023/09/23 02:15:52;;;;;;;3.30;1.55;;;;;;;17.96;79.06;100065.09;2035196;29;20671;-67
2023/09/23 02:17:05;;;;;;;3.45;1.40;;;;;;;17.95;79.06;100063.50;2037039;28;20048;-67
2023/09/23 02:18:15;;;;;;;2.88;1.40;;;;;;;17.94;79.16;100062.72;2051986;28;20035;-67
2023/09/23 02:19:18;;;;;;;3.70;1.10;;;;;;;17.95;79.26;100063.50;2048825;28;20755;-67
2023/09/23 02:20:28;;;;;;;2.38;1.20;;;;;;;17.96;79.40;100059.66;2042686;28;20031;-67
2023/09/23 02:21:30;;;;;;;2.00;1.25;;;;;;;17.95;79.29;100060.78;2049650;28;20051;-67
2023/09/23 02:22:37;;;;;;;3.25;1.63;;;;;;;17.95;79.33;100055.34;2044687;28;20828;-67
2023/09/23 02:23:41;;;;;;;2.67;1.45;;;;;;;17.95;79.21;100056.16;2034273;29;20183;-67
2023/09/23 02:24:43;;;;;;;2.00;1.25;;;;;;;17.94;79.23;100054.56;2042561;28;20951;-67
2023/09/23 02:25:50;;;;;;;1.95;1.20;;;;;;;17.94;79.29;100051.84;2058309;28;20107;-67
2023/09/23 02:26:56;;;;;;;2.45;1.35;;;;;;;17.94;79.22;100051.84;2057653;28;20055;-67
2023/09/23 02:28:07;;;;;;;2.65;1.48;;;;;;;17.93;79.22;100052.97;2057643;28;20118;-67
2023/09/23 02:29:12;;;;;;;;;;;;;;;17.93;79.10;100049.44;2050179;28;20174;-67
2023/09/23 02:30:16;;;;;;;2.15;1.20;;;;;;;17.93;79.15;100052.16;2050961;28;20076;-67
2023/09/23 02:31:19;;;;;;;2.55;1.30;;;;;;;17.93;79.17;100046.72;2057786;28;20149;-67
2023/09/23 02:32:30;;;;;;;2.90;1.30;;;;;;;17.94;79.05;100048.34;2056684;28;20169;-67
2023/09/23 02:33:33;;;;;;;3.05;1.20;;;;;;;17.93;79.05;100046.72;2051144;28;20040;-67
2023/09/23 02:34:39;;;;;;;3.22;1.30;;;;;;;17.91;79.19;100047.09;2057696;28;20137;-67
2023/09/23 02:35:43;;;;;;;2.35;1.60;;;;;;;17.91;79.06;100049.81;2064798;28;20035;-67
2023/09/23 02:36:50;;;;;;;2.88;1.60;;;;;;;17.90;79.14;100056.34;2056628;28;20039;-67
2023/09/23 02:37:53;;;;;;;2.33;1.40;;;;;;;17.90;79.29;100056.34;2056120;28;20873;-67
2023/09/23 02:38:59;;;;;;;2.45;1.50;;;;;;;17.92;79.43;100056.81;2056134;28;20054;-67
2023/09/23 02:40:27;;;;;;;1.90;1.25;;;;;;;17.91;79.46;100062.63;2026539;29;21047;-67
2023/09/23 02:41:28;;;;;;;2.60;1.33;;;;;;;17.91;79.55;100065.34;2038772;28;20044;-66
2023/09/23 02:42:46;;;;;;;2.63;1.33;;;;;;;17.93;79.62;100063.06;2042099;28;20048;-67
2023/09/23 02:43:52;;;;;;;3.65;1.70;;;;;;;17.93;79.38;100063.06;2056512;28;20855;-66
2023/09/23 02:44:59;;;;;;;2.97;1.40;;;;;;;17.91;79.55;100059.91;2056149;28;20046;-67
2023/09/23 02:46:03;;;;;;;2.70;1.30;;;;;;;17.91;79.51;100059.91;2056607;28;20031;-67
2023/09/23 02:47:09;;;;;;;2.40;1.60;;;;;;;17.89;79.39;100056.72;2050851;28;20122;-67
2023/09/23 02:48:19;;;;;;;2.20;1.60;;;;;;;17.91;79.60;100059.91;2041093;28;20040;-67
2023/09/23 02:49:26;;;;;;;2.83;1.55;;;;;;;17.91;79.73;100057.19;2049381;28;20031;-67
2023/09/23 02:50:29;;;;;;;2.38;1.23;;;;;;;17.90;79.71;100053.63;2048561;28;20040;-67
2023/09/23 02:51:34;;;;;;;2.33;1.40;;;;;;;17.89;79.82;100052.06;2033216;29;20052;-67
2023/09/23 02:52:41;;;;;;;2.58;1.25;;;;;;;17.89;79.75;100051.28;2032801;28;20202;-67
2023/09/23 02:53:44;;;;;;;2.58;1.55;;;;;;;17.85;79.87;100048.44;2040486;28;20178;-67
2023/09/23 02:54:52;;;;;;;1.77;1.33;;;;;;;17.89;79.83;100056.72;2041044;28;20213;-67
2023/09/23 02:56:24;;;;;;;2.65;1.60;;;;;;;17.87;79.79;100061.69;2041527;28;20043;-67
2023/09/23 02:57:30;;;;;;;2.13;1.48;;;;;;;17.86;79.67;100063.63;2042566;28;20859;-67
2023/09/23 02:58:41;;;;;;;5.85;1.90;;;;;;;17.86;79.92;100074.50;2034991;28;21158;-67
2023/09/23 02:59:53;;;;;;;2.97;1.70;;;;;;;17.87;79.91;100054.31;2043009;28;20040;-67
2023/09/23 03:00:58;;;;;;;2.58;1.20;;;;;;;17.86;79.91;100049.22;2049884;28;20083;-67
2023/09/23 03:02:07;;;;;;;2.03;1.27;;;;;;;17.86;80.00;100043.78;2055542;28;20827;-67
2023/09/23 03:03:19;;;;;;;2.70;1.40;;;;;;;17.86;80.07;100046.50;2055516;28;20683;-67
2023/09/23 03:04:23;;;;;;;2.08;1.30;;;;;;;17.87;80.10;100048.88;2049494;28;20098;-67
2023/09/23 03:05:38;;;;;;;2.38;1.65;;;;;;;17.87;80.02;100040.72;2041053;28;20036;-68
2023/09/23 03:06:41;;;;;;;3.17;1.40;;;;;;;17.87;80.07;100045.38;2059512;28;20047;-67
2023/09/23 03:07:52;;;;;;;2.85;1.45;;;;;;;17.87;80.14;100048.09;2055970;28;20842;-67
2023/09/23 03:08:58;;;;;;;2.38;1.50;;;;;;;17.87;80.14;100045.38;2049037;28;20062;-67
2023/09/23 03:10:09;;;;;;;4.78;1.70;;;;;;;17.86;80.09;100047.31;2057473;28;20094;-67
2023/09/23 03:11:17;;;;;;;4.07;1.75;;;;;;;17.85;80.10;100043.00;2048082;28;20047;-67
2023/09/23 03:12:26;;;;;;;3.78;2.03;;;;;;;17.86;80.17;100035.63;2042899;28;21535;-67
2023/09/23 03:13:38;;;;;;;5.38;1.58;;;;;;;17.86;80.21;100036.44;2056724;28;20047;-67
2023/09/23 03:14:51;;;;;;;2.97;1.65;;;;;;;17.86;80.43;100049.22;2056281;28;20055;-67
2023/09/23 03:16:08;;;;;;;2.97;1.77;;;;;;;17.87;80.45;100045.38;2041817;28;20043;-68
2023/09/23 03:17:13;;;;;;;4.30;1.60;;;;;;;17.87;80.46;100042.66;2051914;28;20075;-67
2023/09/23 03:18:28;;;;;;;3.20;1.40;;;;;;;17.86;80.48;100033.72;2040225;29;20767;-68
2023/09/23 03:19:32;;;;;;;5.68;3.13;;;;;;;17.88;80.43;100027.94;2053206;28;20086;-68
2023/09/23 03:20:39;;;;;;;2.08;1.38;;;;;;;17.86;80.48;100022.81;2071605;28;20037;-67
2023/09/23 03:21:45;;;;;;;3.83;1.60;;;;;;;17.85;80.49;100020.47;2047676;28;20855;-67
2023/09/23 03:22:50;;;;;;;4.32;1.38;;;;;;;17.87;80.36;100018.19;2049796;28;20041;-67
2023/09/23 03:23:54;;;;;;;4.72;1.90;;;;;;;17.88;80.38;100022.50;2063721;28;20039;-67
2023/09/23 03:25:07;;;;;;;2.42;1.52;;;;;;;17.87;80.32;100029.84;2056388;28;20834;-67
2023/09/23 03:26:14;;;;;;;2.90;1.42;;;;;;;17.88;80.44;100033.38;2049735;28;20787;-67
2023/09/23 03:27:28;;;;;;;4.22;1.80;;;;;;;17.87;80.21;100037.22;2057152;28;20042;-67
2023/09/23 03:28:35;;;;;;;3.20;1.67;;;;;;;17.86;80.22;100041.06;2054508;28;20260;-67
2023/09/23 03:29:46;;;;;;;4.03;1.58;;;;;;;17.86;80.32;100041.06;2042418;28;20036;-67
2023/09/23 03:30:58;;;;;;;6.22;1.70;;;;;;;17.86;80.20;100043.78;2056231;28;20039;-68
2023/09/23 03:32:01;;;;;;;2.03;1.58;;;;;;;17.86;80.46;100044.59;2055254;28;20035;-67
2023/09/23 03:33:18;;;;;;;2.97;1.80;;;;;;;17.86;79.99;100041.06;2048160;28;20087;-68
2023/09/23 03:34:29;;;;;;;5.00;1.95;;;;;;;17.85;80.37;100040.28;2047997;28;20043;-67
2023/09/23 03:35:36;;;;;;;2.67;1.65;;;;;;;17.86;80.36;100041.06;2041175;28;20051;-67
2023/09/23 03:36:46;;;;;;;2.25;1.70;;;;;;;17.86;80.36;100041.06;2040818;28;20029;-67
2023/09/23 03:37:53;;;;;;;2.55;1.40;;;;;;;17.85;80.56;100040.28;2041569;28;20872;-67
2023/09/23 03:39:01;;;;;;;2.58;1.60;;;;;;;17.86;80.42;100041.06;2039669;28;20040;-67
2023/09/23 03:40:08;;;;;;;3.55;1.80;;;;;;;17.85;80.33;100034.06;2042647;28;20036;-68
2023/09/23 03:41:17;;;;;;;5.05;1.67;;;;;;;17.83;80.40;100040.63;2047679;28;20043;-68
2023/09/23 03:42:22;;;;;;;3.92;1.85;;;;;;;17.82;80.37;100047.19;2048833;28;20613;-68
2023/09/23 03:43:27;;;;;;;2.78;1.70;;;;;;;17.81;80.35;100052.94;2043046;28;20040;-68
2023/09/23 03:44:35;;;;;;;3.53;1.63;;;;;;;17.81;80.38;100061.94;2026075;29;20857;-68
2023/09/23 03:45:42;;;;;;;1.90;1.50;;;;;;;17.80;80.25;100057.59;2034688;28;20036;-68
2023/09/23 03:46:49;;;;;;;3.08;1.88;;;;;;;17.79;80.28;100064.19;2048937;28;20147;-67
2023/09/23 03:48:06;;;;;;;2.45;1.65;;;;;;;17.79;80.33;100058.75;2055202;28;20173;-67
2023/09/23 03:49:12;;;;;;;3.28;1.60;;;;;;;17.80;80.13;100054.09;2055996;28;20141;-67
2023/09/23 03:50:19;;;;;;;2.45;1.63;;;;;;;17.79;80.32;100058.75;2048351;28;20937;-67
2023/09/23 03:51:21;;;;;;;2.80;1.73;;;;;;;17.79;80.29;100053.31;2040805;28;20844;-67
2023/09/23 03:52:26;;;;;;;2.70;1.48;;;;;;;17.81;80.48;100053.78;2041036;28;20945;-67
2023/09/23 03:53:31;;;;;;;4.50;2.00;;;;;;;17.80;80.45;100060.31;2036485;29;20036;-67
2023/09/23 03:54:36;;;;;;;4.07;1.92;;;;;;;17.80;80.51;100059.53;2033863;28;20055;-67
2023/09/23 03:55:43;;;;;;;3.22;1.70;;;;;;;17.80;80.52;100067.69;2048965;28;20055;-68
2023/09/23 03:56:45;;;;;;;2.92;1.60;;;;;;;17.79;80.47;100068.84;2049404;28;20788;-67
2023/09/23 03:57:49;;;;;;;2.95;1.60;;;;;;;17.78;80.56;100073.50;2048858;28;20055;-67
2023/09/23 03:58:56;;;;;;;3.50;1.92;;;;;;;17.78;80.56;100081.63;2056513;28;20157;-67
2023/09/23 04:00:10;;;;;;;2.47;1.88;;;;;;;17.76;80.45;100073.00;2041093;28;20032;-67
2023/09/23 04:01:14;;;;;;;5.50;1.63;;;;;;;17.75;80.62;100071.41;2050666;28;20243;-67
2023/09/23 04:02:16;;;;;;;2.58;1.63;;;;;;;17.74;80.66;100075.25;2063615;28;20135;-67
2023/09/23 04:03:21;;;;;;;5.25;2.15;;;;;;;17.74;80.75;100067.09;2046906;28;20047;-67
2023/09/23 04:04:32;;;;;;;2.60;1.90;;;;;;;17.73;80.79;100068.22;2035319;28;20044;-67
2023/09/23 04:05:35;;;;;;;4.13;2.00;;;;;;;17.72;80.77;100072.09;2034870;29;20084;-67
2023/09/23 04:06:44;;;;;;;2.00;1.80;;;;;;;17.73;80.70;100070.16;2042385;28;20787;-67
2023/09/23 04:07:50;;;;;;;4.63;1.90;;;;;;;17.72;80.71;100066.66;2047971;28;20054;-67
2023/09/23 04:08:54;;;;;;;2.80;2.25;;;;;;;17.71;80.78;100073.19;2042608;28;20136;-67
2023/09/23 04:10:06;;;;;;;4.97;1.98;;;;;;;17.72;80.73;100074.03;2056345;28;20645;-67
2023/09/23 04:11:09;;;;;;;2.95;1.90;;;;;;;17.71;80.73;100069.69;2049456;28;20071;-67
2023/09/23 04:12:13;;;;;;;2.30;1.50;;;;;;;17.70;80.86;100068.13;2057670;28;20169;-67
2023/09/23 04:13:20;;;;;;;5.63;2.22;;;;;;;17.69;80.85;100070.03;2064653;28;20687;-67
2023/09/23 04:14:26;;;;;;;4.53;1.90;;;;;;;17.70;80.91;100070.84;2040059;29;20283;-67
2023/09/23 04:15:33;;;;;;;4.30;2.00;;;;;;;17.69;80.92;100071.97;2035459;28;21384;-67
2023/09/23 04:16:35;;;;;;;3.53;2.00;;;;;;;17.68;80.82;100084.75;2033816;29;20236;-67
2023/09/23 04:17:40;;;;;;;3.42;1.90;;;;;;;17.67;80.80;100077.72;2033345;28;20040;-67
2023/09/23 04:18:46;;;;;;;3.45;2.10;;;;;;;17.68;80.93;100084.75;2049691;28;20238;-67
2023/09/23 04:19:56;;;;;;;3.45;2.10;;;;;;;17.67;80.88;100088.59;2056773;28;20039;-66
2023/09/23 04:21:03;;;;;;;4.22;2.67;;;;;;;17.67;80.84;100085.88;2056543;28;20070;-67
2023/09/23 04:22:08;;;;;;;3.40;1.98;;;;;;;17.66;80.96;100081.59;2057287;28;20904;-67
2023/09/23 04:23:12;;;;;;;4.47;2.30;;;;;;;17.66;80.87;100083.53;2048836;28;20036;-67
2023/09/23 04:24:14;;;;;;;3.92;2.30;;;;;;;17.65;81.03;100077.28;2049420;28;20060;-67
2023/09/23 04:25:21;;;;;;;3.97;2.25;;;;;;;17.64;81.03;100077.63;2049781;28;20143;-67
2023/09/23 04:26:24;;;;;;;2.67;1.90;;;;;;;17.64;80.95;100072.19;2056755;28;20031;-67
2023/09/23 04:27:30;;;;;;;4.32;2.28;;;;;;;17.63;80.89;100084.19;2041508;28;20032;-67
2023/09/23 04:28:43;;;;;;;3.35;2.28;;;;;;;17.61;80.96;100079.88;2043688;28;20189;-67
2023/09/23 04:29:50;;;;;;;4.18;2.00;;;;;;;17.61;80.99;100081.81;2048915;28;20137;-67
2023/09/23 04:31:01;;;;;;;3.67;2.13;;;;;;;17.61;80.84;100081.81;2026744;29;20149;-67
2023/09/23 04:32:09;;;;;;;3.00;2.20;;;;;;;17.59;80.88;100075.91;2038661;28;20805;-67
2023/09/23 04:33:15;;;;;;;3.63;2.00;;;;;;;17.57;80.98;100070.81;2043601;28;21295;-67
2023/09/23 04:34:17;;;;;;;4.47;1.85;;;;;;;17.57;80.84;100078.19;2049680;28;20767;-67
2023/09/23 04:35:19;;;;;;;3.38;2.15;;;;;;;17.57;80.95;100083.63;2056018;28;20051;-67
2023/09/23 04:36:24;;;;;;;2.83;1.70;;;;;;;17.57;80.98;100084.41;2057269;28;20042;-67
2023/09/23 04:37:27;;;;;;;3.42;1.77;;;;;;;17.57;81.00;100095.28;2041700;28;20067;-67
2023/09/23 04:38:33;;;;;;;2.90;2.00;;;;;;;17.57;80.81;100095.28;2050132;28;20235;-67
2023/09/23 04:39:43;;;;;;;4.55;2.13;;;;;;;17.57;80.85;100094.50;2056620;28;20039;-67
2023/09/23 04:40:47;;;;;;;;;;;;;;;17.56;80.91;100093.69;2051198;28;20039;-67
2023/09/23 04:41:50;;;;;;;2.50;2.03;;;;;;;17.55;81.06;100097.53;2056650;28;19918;-68
2023/09/23 04:42:52;;;;;;;5.53;2.00;;;;;;;17.56;81.12;100098.34;2057340;28;20145;-67
2023/09/23 04:43:57;;;;;;;2.72;1.80;;;;;;;17.56;81.18;100099.13;2048628;28;20858;-67
2023/09/23 04:45:00;;;;;;;3.53;2.08;;;;;;;17.57;81.21;100110.78;2042847;28;20035;-67
2023/09/23 04:46:06;;;;;;;3.78;2.25;;;;;;;17.56;81.06;100117.38;2042261;28;20036;-67
2023/09/23 04:47:14;;;;;;;2.97;2.20;;;;;;;17.56;81.06;100120.09;2056626;28;20122;-67
2023/09/23 04:48:18;;;;;;;3.70;1.90;;;;;;;17.55;81.14;100113.84;2047974;28;20044;-67
2023/09/23 04:49:20;;;;;;;3.08;2.00;;;;;;;17.56;81.06;100120.09;2049282;28;21290;-67
2023/09/23 04:50:28;;;;;;;4.22;1.95;;;;;;;17.55;81.16;100121.19;2049614;28;20036;-67
2023/09/23 04:51:38;;;;;;;5.30;2.20;;;;;;;17.56;81.25;100125.53;2041966;28;20709;-67
2023/09/23 04:52:42;;;;;;;3.30;2.20;;;;;;;17.56;81.39;100125.53;2051620;28;20961;-67
2023/09/23 04:53:51;;;;;;;3.47;2.20;;;;;;;17.56;81.24;100128.25;2063900;28;20066;-66
2023/09/23 04:54:56;;;;;;;3.03;2.20;;;;;;;17.56;81.29;100130.97;2049590;28;20870;-67
2023/09/23 04:56:16;;;;;;;3.40;1.90;;;;;;;17.55;81.35;100123.91;2043357;28;20856;-66
2023/09/23 04:57:20;;;;;;;2.97;2.22;;;;;;;17.55;81.24;100130.16;2052023;28;20923;-67
2023/09/23 04:58:30;;;;;;;4.32;2.40;;;;;;;17.56;81.54;100130.97;2050097;28;20046;-67
2023/09/23 04:59:32;;;;;;;4.60;2.40;;;;;;;17.56;81.40;100144.56;2049172;28;20063;-66
2023/09/23 05:00:36;;;;;;;4.63;2.28;;;;;;;17.56;81.40;100144.56;2054463;28;20264;-66
2023/09/23 05:01:38;;;;;;;3.20;2.20;;;;;;;17.58;81.19;100150.44;2029278;28;20031;-66
2023/09/23 05:02:40;;;;;;;3.40;2.30;;;;;;;17.56;81.37;100150.78;2038008;28;20106;-66
2023/09/23 05:03:43;;;;;;;2.47;2.15;;;;;;;17.56;81.50;100160.88;2035508;28;20214;-67
2023/09/23 05:04:48;;;;;;;4.07;2.30;;;;;;;17.55;81.36;100157.31;2035476;28;20283;-67
2023/09/23 05:05:50;;;;;;;4.78;2.40;;;;;;;17.55;81.43;100161.97;2044433;28;21397;-67
2023/09/23 05:06:52;;;;;;;2.90;2.08;;;;;;;17.54;81.44;100155.75;2029834;28;20271;-67
2023/09/23 05:07:55;;;;;;;5.38;2.60;;;;;;;17.54;81.41;100160.41;2042035;28;20508;-67
2023/09/23 05:08:58;;;;;;;4.55;2.33;;;;;;;17.53;81.44;100147.94;2028579;28;20047;-66
2023/09/23 05:09:59;;;;;;;4.25;2.40;;;;;;;17.56;81.70;100147.28;2029613;28;20833;-67
2023/09/23 05:11:06;;;;;;;4.18;2.42;;;;;;;17.54;81.53;100139.44;2036583;28;20873;-67
2023/09/23 05:12:11;;;;;;;3.85;2.40;;;;;;;17.55;81.54;100140.22;2037020;28;21133;-67